createdAt,value
2022-08-14T00:02:02.358Z,85.40
2022-08-14T00:04:35.528Z,84.63
2022-08-14T00:07:14.977Z,84.87
2022-08-14T00:09:56.009Z,83.76
2022-08-14T00:12:33.014Z,84.25
2022-08-14T00:15:03.057Z,81.55
2022-08-14T00:17:31.502Z,82.25
2022-08-14T00:20:23.741Z,78.79
2022-08-14T00:22:57.364Z,79.95
2022-08-14T00:25:30.645Z,79.15
2022-08-14T00:28:15.110Z,76.60
2022-08-14T00:30:47.038Z,79.29
2022-08-14T00:33:16.805Z,80.69
2022-08-14T00:36:35.844Z,82.80
2022-08-14T00:38:36.918Z,84.42
2022-08-14T00:41:10.876Z,84.16
2022-08-14T00:43:43.113Z,83.93
2022-08-14T00:46:32.902Z,82.54
2022-08-14T00:49:00.099Z,83.06
2022-08-14T00:51:34.801Z,83.65
2022-08-14T00:54:16.809Z,83.36
2022-08-14T00:56:55.401Z,82.58
2022-08-14T00:59:25.475Z,81.27
2022-08-14T01:01:58.207Z,79.16
2022-08-14T01:04:51.546Z,79.24
2022-08-14T01:07:21.160Z,80.23
2022-08-14T01:09:53.328Z,80.08
2022-08-14T01:12:27.106Z,80.39
2022-08-14T01:14:59.374Z,78.05
2022-08-14T01:17:52.085Z,75.95
2022-08-14T01:20:39.418Z,75.71
2022-08-14T01:23:16.219Z,75.60
2022-08-14T01:25:49.129Z,76.79
2022-08-14T01:28:46.517Z,76.84
2022-08-14T01:31:12.485Z,76.51
2022-08-14T01:35:15.944Z,76.63
2022-08-14T01:36:37.137Z,76.87
2022-08-14T01:39:12.933Z,75.96
2022-08-14T01:41:44.070Z,76.32
2022-08-14T01:44:33.027Z,76.48
2022-08-14T01:47:06.007Z,76.38
2022-08-14T01:49:35.411Z,76.35
2022-08-14T01:52:08.960Z,76.26
2022-08-14T01:54:43.755Z,76.16
2022-08-14T01:57:26.797Z,75.64
2022-08-14T02:00:19.228Z,75.30
2022-08-14T02:02:52.815Z,75.57
2022-08-14T02:05:21.532Z,75.69
2022-08-14T02:07:55.906Z,76.40
2022-08-14T02:10:31.850Z,76.99
2022-08-14T02:13:15.910Z,76.88
2022-08-14T02:15:45.689Z,77.36
2022-08-14T02:18:18.348Z,77.78
2022-08-14T02:20:51.258Z,77.81
2022-08-14T02:23:23.906Z,78.62
2022-08-14T02:26:24.356Z,78.06
2022-08-14T02:28:57.670Z,78.69
2022-08-14T02:31:42.516Z,78.25
2022-08-14T02:34:21.935Z,79.58
2022-08-14T02:37:04.689Z,79.34
2022-08-14T02:39:37.127Z,80.21
2022-08-14T02:42:13.018Z,80.84
2022-08-14T02:44:48.823Z,81.76
2022-08-14T02:47:20.781Z,82.69
2022-08-14T02:49:56.667Z,82.90
2022-08-14T02:52:26.719Z,83.28
2022-08-14T02:54:57.337Z,83.41
2022-08-14T02:57:40.341Z,83.85
2022-08-14T03:00:13.043Z,83.66
2022-08-14T03:02:56.775Z,83.73
2022-08-14T03:05:35.877Z,83.26
2022-08-14T03:08:09.000Z,83.12
2022-08-14T03:10:41.626Z,82.93
2022-08-14T03:13:19.069Z,83.18
2022-08-14T03:15:54.936Z,82.42
2022-08-14T03:18:30.896Z,81.25
2022-08-14T03:21:08.024Z,80.41
2022-08-14T03:23:38.098Z,80.37
2022-08-14T03:26:08.644Z,80.50
2022-08-14T03:28:43.592Z,80.67
2022-08-14T03:31:13.605Z,82.23
2022-08-14T03:33:42.344Z,79.61
2022-08-14T03:37:50.921Z,78.22
2022-08-14T03:39:12.538Z,75.98
2022-08-14T03:41:47.695Z,74.37
2022-08-14T03:45:27.957Z,74.07
2022-08-14T03:47:06.744Z,73.24
2022-08-14T03:49:42.526Z,72.23
2022-08-14T03:52:27.771Z,71.76
2022-08-14T03:55:01.329Z,70.53
2022-08-14T03:57:37.097Z,69.36
2022-08-14T04:00:13.936Z,68.98
2022-08-14T04:02:59.315Z,68.75
2022-08-14T04:05:27.481Z,68.81
2022-08-14T04:08:08.380Z,69.49
2022-08-14T04:10:45.293Z,68.87
2022-08-14T04:13:18.375Z,66.24
2022-08-14T04:16:01.218Z,63.72
2022-08-14T04:18:30.617Z,62.46
2022-08-14T04:20:59.371Z,63.13
2022-08-14T04:23:32.909Z,62.82
2022-08-14T04:26:03.037Z,62.35
2022-08-14T04:29:06.741Z,64.16
2022-08-14T04:31:25.058Z,66.04
2022-08-14T04:34:11.915Z,64.30
2022-08-14T04:36:59.602Z,65.28
2022-08-14T04:39:46.565Z,65.78
2022-08-14T04:42:33.078Z,66.52
2022-08-14T04:45:01.600Z,65.75
2022-08-14T04:47:53.697Z,64.30
2022-08-14T04:50:43.753Z,64.96
2022-08-14T04:53:13.113Z,62.86
2022-08-14T04:55:43.074Z,59.54
2022-08-14T04:58:21.993Z,57.81
2022-08-14T05:01:00.107Z,54.69
2022-08-14T05:03:31.984Z,55.93
2022-08-14T05:06:02.029Z,56.51
2022-08-14T05:08:56.639Z,58.85
2022-08-14T05:11:20.750Z,58.40
2022-08-14T05:16:38.790Z,53.43
2022-08-14T05:19:19.099Z,49.74
2022-08-14T05:22:16.414Z,49.55
2022-08-14T05:24:51.299Z,49.99
2022-08-14T05:27:22.691Z,49.10
2022-08-14T05:29:55.389Z,45.68
2022-08-14T05:32:27.337Z,47.78
2022-08-14T05:34:59.801Z,47.72
2022-08-14T05:37:30.340Z,49.06
2022-08-14T05:40:02.216Z,48.04
2022-08-14T05:42:31.975Z,49.15
2022-08-14T05:45:04.260Z,48.43
2022-08-14T05:47:39.017Z,48.76
2022-08-14T05:50:18.411Z,52.68
2022-08-14T05:52:50.520Z,55.86
2022-08-14T05:55:22.074Z,59.23
2022-08-14T05:57:54.495Z,57.78
2022-08-14T06:00:29.300Z,53.08
2022-08-14T06:03:00.075Z,49.39
2022-08-14T06:05:30.220Z,50.01
2022-08-14T06:07:59.554Z,47.37
2022-08-14T06:10:28.856Z,48.94
2022-08-14T06:12:58.675Z,45.30
2022-08-14T06:15:30.264Z,43.92
2022-08-14T06:18:00.234Z,42.99
2022-08-14T06:20:30.995Z,40.16
2022-08-14T06:23:00.099Z,39.11
2022-08-14T06:25:28.958Z,38.65
2022-08-14T06:27:58.074Z,40.11
2022-08-14T06:30:46.487Z,38.66
2022-08-14T06:33:18.047Z,38.04
2022-08-14T06:35:49.961Z,37.99
2022-08-14T06:38:19.905Z,38.35
2022-08-14T06:40:50.792Z,37.49
2022-08-14T06:43:20.420Z,37.05
2022-08-14T06:45:54.579Z,36.15
2022-08-14T06:48:26.561Z,35.50
2022-08-14T06:50:58.148Z,35.57
2022-08-14T06:53:28.296Z,35.87
2022-08-14T06:56:01.996Z,35.51
2022-08-14T06:58:32.519Z,35.05
2022-08-14T07:01:27.535Z,35.53
2022-08-14T07:04:23.223Z,36.14
2022-08-14T07:06:59.012Z,37.53
2022-08-14T07:09:40.600Z,37.52
2022-08-14T07:12:54.809Z,37.07
2022-08-14T07:15:07.414Z,37.03
2022-08-14T07:17:36.310Z,37.36
2022-08-14T07:20:07.309Z,37.69
2022-08-14T07:22:56.172Z,37.34
2022-08-14T07:25:32.523Z,37.84
2022-08-14T07:28:01.915Z,38.40
2022-08-14T07:30:34.603Z,38.30
2022-08-14T07:33:03.737Z,37.98
2022-08-14T07:35:42.891Z,38.51
2022-08-14T07:38:24.048Z,38.85
2022-08-14T07:40:53.300Z,38.29
2022-08-14T07:43:22.982Z,39.62
2022-08-14T07:45:53.810Z,40.29
2022-08-14T07:48:24.998Z,42.18
2022-08-14T07:50:57.224Z,45.83
2022-08-14T07:53:34.172Z,46.79
2022-08-14T07:56:22.060Z,47.22
2022-08-14T07:58:58.185Z,48.54
2022-08-14T08:01:29.797Z,49.78
2022-08-14T08:04:01.148Z,50.98
2022-08-14T08:06:30.717Z,51.95
2022-08-14T08:09:03.381Z,51.55
2022-08-14T08:11:37.339Z,51.71
2022-08-14T08:14:10.696Z,51.14
2022-08-14T08:16:51.167Z,52.57
2022-08-14T08:19:19.889Z,52.49
2022-08-14T08:21:48.243Z,53.47
2022-08-14T08:24:18.504Z,52.83
2022-08-14T08:26:50.747Z,53.68
2022-08-14T08:29:28.690Z,53.01
2022-08-14T08:32:01.582Z,53.12
2022-08-14T08:34:33.570Z,52.68
2022-08-14T08:37:07.037Z,52.64
2022-08-14T08:40:02.951Z,53.15
2022-08-14T08:42:38.678Z,51.84
2022-08-14T08:45:23.641Z,51.68
2022-08-14T08:47:52.751Z,53.97
2022-08-14T08:50:31.722Z,59.21
2022-08-14T08:53:02.522Z,59.79
2022-08-14T08:55:38.619Z,58.16
2022-08-14T08:58:12.575Z,56.12
2022-08-14T09:00:49.698Z,56.30
2022-08-14T09:03:27.484Z,55.34
2022-08-14T09:05:57.850Z,55.38
2022-08-14T09:08:31.519Z,55.63
2022-08-14T09:11:19.461Z,56.34
2022-08-14T09:13:51.109Z,56.84
2022-08-14T09:16:24.895Z,57.89
2022-08-14T09:18:53.845Z,56.57
2022-08-14T09:21:24.932Z,56.74
2022-08-14T09:24:29.009Z,57.16
2022-08-14T09:26:50.258Z,57.81
2022-08-14T09:29:23.090Z,58.08
2022-08-14T09:31:57.607Z,57.97
2022-08-14T09:34:58.234Z,58.18
2022-08-14T09:37:43.728Z,57.47
2022-08-14T09:40:22.270Z,58.33
2022-08-14T09:43:03.923Z,57.96
2022-08-14T09:45:40.281Z,58.77
2022-08-14T09:48:29.857Z,59.39
2022-08-14T09:54:19.207Z,57.80
2022-08-14T09:56:32.961Z,58.59
2022-08-14T09:59:16.225Z,58.66
2022-08-14T10:01:53.176Z,60.30
2022-08-14T10:04:34.768Z,60.79
2022-08-14T10:07:08.114Z,61.30
2022-08-14T10:09:59.957Z,60.23
2022-08-14T10:12:52.954Z,60.18
2022-08-14T10:15:29.867Z,59.54
2022-08-14T10:18:17.750Z,60.68
2022-08-14T10:20:58.133Z,60.41
2022-08-14T10:23:35.021Z,61.07
2022-08-14T10:26:06.660Z,61.21
2022-08-14T10:29:18.638Z,60.97
2022-08-14T10:31:44.934Z,59.85
2022-08-14T10:34:15.232Z,59.15
2022-08-14T10:36:48.027Z,59.80
2022-08-14T10:39:19.155Z,60.29
2022-08-14T10:41:54.063Z,60.70
2022-08-14T10:44:29.818Z,60.55
2022-08-14T10:47:40.252Z,60.74
2022-08-14T10:49:59.715Z,60.19
2022-08-14T10:52:33.930Z,61.40
2022-08-14T10:55:14.292Z,61.50
2022-08-14T10:57:51.755Z,61.17
2022-08-14T11:00:30.364Z,61.59
2022-08-14T11:03:09.727Z,61.61
2022-08-14T11:05:43.284Z,61.32
2022-08-14T11:08:13.875Z,60.32
2022-08-14T11:10:48.384Z,60.50
2022-08-14T11:13:24.067Z,60.84
2022-08-14T11:15:57.683Z,60.45
2022-08-14T11:18:35.646Z,60.32
2022-08-14T11:21:08.448Z,60.90
2022-08-14T11:23:41.290Z,61.76
2022-08-14T11:26:13.354Z,61.67
2022-08-14T11:28:47.409Z,61.23
2022-08-14T11:31:22.247Z,61.62
2022-08-14T11:33:59.470Z,61.58
2022-08-14T11:37:02.351Z,60.91
2022-08-14T11:39:23.126Z,61.15
2022-08-14T11:42:55.280Z,61.37
2022-08-14T11:45:00.236Z,60.92
2022-08-14T11:47:35.468Z,61.05
2022-08-14T11:50:34.133Z,61.76
2022-08-14T11:53:08.779Z,60.65
2022-08-14T11:55:39.505Z,61.57
2022-08-14T11:58:11.733Z,61.09
2022-08-14T12:00:50.338Z,62.21
2022-08-14T12:03:37.668Z,62.41
2022-08-14T12:06:28.071Z,63.26
2022-08-14T12:09:01.857Z,62.85
2022-08-14T12:11:43.048Z,64.14
2022-08-14T12:14:13.450Z,64.02
2022-08-14T12:17:02.116Z,63.99
2022-08-14T12:19:33.400Z,63.83
2022-08-14T12:22:06.847Z,64.70
2022-08-14T12:24:40.087Z,64.40
2022-08-14T12:27:09.421Z,63.16
2022-08-14T12:29:38.170Z,62.99
2022-08-14T12:32:08.905Z,62.66
2022-08-14T12:34:45.100Z,63.97
2022-08-14T12:37:14.845Z,64.35
2022-08-14T12:39:43.239Z,62.93
2022-08-14T12:42:34.071Z,64.72
2022-08-14T12:45:03.721Z,64.97
2022-08-14T12:47:32.888Z,66.05
2022-08-14T12:50:01.568Z,67.13
2022-08-14T12:52:41.610Z,65.65
2022-08-14T12:55:22.355Z,66.02
2022-08-14T12:57:55.467Z,66.70
2022-08-14T13:00:25.860Z,65.97
2022-08-14T13:02:56.455Z,67.47
2022-08-14T13:05:28.382Z,67.55
2022-08-14T13:07:59.151Z,66.51
2022-08-14T13:10:47.131Z,67.40
2022-08-14T13:13:18.412Z,67.54
2022-08-14T13:15:57.530Z,68.16
2022-08-14T13:18:28.155Z,68.26
2022-08-14T13:21:01.752Z,67.54
2022-08-14T13:23:37.551Z,68.24
2022-08-14T13:26:08.358Z,70.54
2022-08-14T13:29:02.806Z,70.89
2022-08-14T13:31:32.465Z,71.21
2022-08-14T13:34:04.418Z,70.78
2022-08-14T13:36:51.457Z,70.86
2022-08-14T13:39:25.261Z,71.25
2022-08-14T13:41:55.679Z,70.37
2022-08-14T13:44:28.812Z,70.65
2022-08-14T13:46:58.536Z,70.71
2022-08-14T13:49:29.082Z,70.27
2022-08-14T13:51:59.777Z,70.12
2022-08-14T13:54:33.115Z,69.91
2022-08-14T13:57:03.782Z,69.00
2022-08-14T13:59:37.677Z,67.58
2022-08-14T14:02:08.845Z,68.46
2022-08-14T14:04:41.076Z,68.90
2022-08-14T14:07:13.231Z,70.21
2022-08-14T14:09:52.734Z,72.18
2022-08-14T14:12:38.248Z,71.21
2022-08-14T14:15:13.547Z,70.39
2022-08-14T14:17:48.010Z,69.42
2022-08-14T14:20:35.388Z,68.94
2022-08-14T14:23:09.487Z,68.73
2022-08-14T14:25:49.352Z,69.80
2022-08-14T14:28:31.995Z,69.84
2022-08-14T14:31:06.928Z,70.47
2022-08-14T14:33:52.373Z,70.11
2022-08-14T14:36:27.774Z,69.50
2022-08-14T14:38:58.815Z,70.48
2022-08-14T14:41:38.099Z,70.50
2022-08-14T14:44:09.128Z,70.81
2022-08-14T14:46:41.648Z,70.72
2022-08-14T14:49:16.840Z,71.25
2022-08-14T14:51:51.063Z,71.41
2022-08-14T14:54:30.922Z,71.50
2022-08-14T14:57:02.698Z,71.47
2022-08-14T14:59:33.462Z,70.97
2022-08-14T15:02:08.206Z,71.46
2022-08-14T15:04:43.795Z,72.01
2022-08-14T15:07:13.112Z,71.85
2022-08-14T15:09:44.980Z,71.68
2022-08-14T15:12:55.127Z,71.16
2022-08-14T15:15:08.936Z,71.48
2022-08-14T15:17:40.811Z,71.14
2022-08-14T15:20:17.588Z,69.69
2022-08-14T15:22:58.911Z,69.22
2022-08-14T15:25:31.997Z,68.87
2022-08-14T15:28:03.604Z,68.41
2022-08-14T15:30:33.484Z,68.51
2022-08-14T15:33:01.998Z,68.98
2022-08-14T15:35:34.090Z,68.15
2022-08-14T15:38:08.791Z,67.73
2022-08-14T15:40:41.176Z,67.28
2022-08-14T15:43:12.992Z,68.02
2022-08-14T15:45:45.140Z,64.20
2022-08-14T15:48:22.688Z,63.92
2022-08-14T15:50:51.878Z,64.96
2022-08-14T15:53:22.478Z,64.78
2022-08-14T15:55:52.896Z,64.40
2022-08-14T15:58:23.080Z,64.78
2022-08-14T16:01:11.368Z,64.00
2022-08-14T16:03:42.499Z,65.25
2022-08-14T16:06:17.774Z,64.82
2022-08-14T16:08:50.427Z,64.03
2022-08-14T16:11:26.754Z,64.38
2022-08-14T16:13:59.221Z,64.56
2022-08-14T16:16:34.918Z,64.11
2022-08-14T16:19:21.266Z,64.33
2022-08-14T16:22:02.030Z,64.71
2022-08-14T16:24:59.677Z,64.97
2022-08-14T16:27:34.173Z,64.93
2022-08-14T16:30:27.589Z,65.79
2022-08-14T16:32:57.687Z,66.35
2022-08-14T16:35:42.765Z,67.25
2022-08-14T16:38:19.745Z,67.54
2022-08-14T16:41:26.546Z,68.10
2022-08-14T16:43:59.326Z,69.13
2022-08-14T16:46:32.537Z,68.47
2022-08-14T16:49:01.579Z,68.87
2022-08-14T16:51:36.512Z,69.21
2022-08-14T16:54:34.415Z,69.92
2022-08-14T16:57:13.754Z,70.25
2022-08-14T16:59:52.430Z,70.84
2022-08-14T17:02:36.675Z,71.06
2022-08-14T17:05:18.007Z,71.71
2022-08-14T17:08:33.313Z,71.95
2022-08-14T17:11:10.533Z,72.52
2022-08-14T17:13:58.719Z,72.79
2022-08-14T17:16:37.234Z,72.90
2022-08-14T17:19:13.613Z,73.56
2022-08-14T17:21:47.245Z,73.95
2022-08-14T17:24:57.130Z,74.13
2022-08-14T17:27:07.466Z,74.42
2022-08-14T17:29:44.692Z,74.50
2022-08-14T17:32:29.984Z,74.86
2022-08-14T17:35:18.082Z,75.50
2022-08-14T17:37:55.943Z,75.19
2022-08-14T17:40:30.964Z,76.18
2022-08-14T17:43:02.230Z,75.77
2022-08-14T17:45:49.927Z,76.84
2022-08-14T17:49:10.074Z,76.83
2022-08-14T17:51:23.842Z,77.88
2022-08-14T17:54:02.595Z,77.23
2022-08-14T17:56:33.092Z,77.64
2022-08-14T17:59:06.984Z,77.40
2022-08-14T18:01:38.656Z,78.28
2022-08-14T18:04:24.645Z,78.85
2022-08-14T18:07:09.923Z,79.00
2022-08-14T18:09:57.405Z,78.60
2022-08-14T18:12:36.919Z,79.07
2022-08-14T18:15:16.196Z,79.68
2022-08-14T18:17:52.753Z,79.83
2022-08-14T18:21:40.069Z,80.67
2022-08-14T18:23:13.816Z,80.88
2022-08-14T18:25:50.459Z,81.63
2022-08-14T18:28:50.904Z,81.59
2022-08-14T18:31:42.119Z,81.89
2022-08-14T18:34:30.960Z,82.27
2022-08-14T18:37:14.280Z,82.76
2022-08-14T18:40:01.707Z,82.78
2022-08-14T18:42:44.029Z,82.71
2022-08-14T18:45:18.631Z,82.28
2022-08-14T18:48:14.221Z,82.15
2022-08-14T18:50:52.333Z,82.34
2022-08-14T18:53:24.508Z,82.30
2022-08-14T18:55:59.851Z,82.00
2022-08-14T18:58:46.885Z,81.65
2022-08-14T19:01:30.209Z,81.48
2022-08-14T19:04:00.165Z,80.89
2022-08-14T19:06:56.454Z,80.63
2022-08-14T19:09:53.890Z,80.54
2022-08-14T19:13:11.782Z,80.67
2022-08-14T19:15:44.934Z,81.50
2022-08-14T19:18:27.852Z,81.86
2022-08-14T19:20:58.850Z,81.25
2022-08-14T19:23:43.205Z,81.64
2022-08-14T19:26:37.180Z,82.13
2022-08-14T19:29:38.180Z,82.20
2022-08-14T19:32:40.160Z,81.95
2022-08-14T19:35:49.829Z,82.02
2022-08-14T19:38:52.133Z,81.59
2022-08-14T19:41:23.002Z,81.42
2022-08-14T19:43:57.174Z,81.12
2022-08-14T19:46:38.832Z,81.17
2022-08-14T19:49:21.343Z,81.35
2022-08-14T19:51:52.765Z,81.29
2022-08-14T19:54:31.210Z,81.83
2022-08-14T19:57:03.716Z,82.10
2022-08-14T19:59:36.740Z,81.95
2022-08-14T20:02:29.984Z,81.79
2022-08-14T20:05:03.865Z,81.54
2022-08-14T20:07:59.054Z,81.67
2022-08-14T20:11:08.261Z,82.23
2022-08-14T20:13:32.247Z,82.28
2022-08-14T20:16:12.305Z,82.17
2022-08-14T20:18:50.737Z,82.86
2022-08-14T20:21:20.042Z,82.97
2022-08-14T20:23:50.461Z,82.76
2022-08-14T20:26:30.979Z,83.61
2022-08-14T20:29:04.913Z,83.66
2022-08-14T20:31:37.614Z,84.06
2022-08-14T20:34:24.889Z,83.25
2022-08-14T20:37:09.935Z,82.24
2022-08-14T20:39:54.357Z,82.14
2022-08-14T20:42:43.772Z,81.52
2022-08-14T20:45:21.641Z,80.75
2022-08-14T20:47:57.736Z,80.89
2022-08-14T20:50:28.623Z,79.97
2022-08-14T20:52:58.167Z,79.86
2022-08-14T20:55:32.273Z,79.12
2022-08-14T20:58:03.765Z,79.04
2022-08-14T21:00:52.632Z,78.89
2022-08-14T21:03:56.374Z,78.63
2022-08-14T21:06:28.560Z,78.61
2022-08-14T21:09:01.861Z,78.74
2022-08-14T21:11:31.442Z,78.42
2022-08-14T21:14:20.986Z,78.27
2022-08-14T21:16:59.144Z,77.99
2022-08-14T21:19:30.189Z,77.47
2022-08-14T21:22:01.669Z,77.40
2022-08-14T21:24:39.391Z,77.39
2022-08-14T21:27:20.397Z,77.79
2022-08-14T21:29:54.356Z,77.96
2022-08-14T21:32:47.337Z,78.58
2022-08-14T21:35:28.769Z,78.46
2022-08-14T21:37:58.788Z,78.42
2022-08-14T21:40:42.245Z,78.43
2022-08-14T21:43:18.009Z,78.34
2022-08-14T21:45:53.275Z,78.73
2022-08-14T21:48:25.277Z,79.10
2022-08-14T21:51:01.047Z,79.34
2022-08-14T21:53:58.236Z,79.69
2022-08-14T21:56:37.620Z,79.91
2022-08-14T21:59:08.161Z,79.94
2022-08-14T22:02:01.240Z,80.16
2022-08-14T22:04:33.095Z,79.52
2022-08-14T22:07:03.776Z,79.57
2022-08-14T22:09:36.525Z,78.96
2022-08-14T22:12:08.138Z,79.16
2022-08-14T22:14:43.131Z,79.24
2022-08-14T22:17:16.140Z,79.42
2022-08-14T22:19:54.908Z,79.20
2022-08-14T22:22:27.244Z,79.16
2022-08-14T22:25:00.080Z,79.11
2022-08-14T22:27:29.731Z,78.96
2022-08-14T22:30:01.745Z,79.20
2022-08-14T22:32:35.498Z,79.33
2022-08-14T22:35:18.916Z,79.26
2022-08-14T22:38:36.623Z,79.29
2022-08-14T22:41:15.027Z,78.98
2022-08-14T22:43:35.942Z,78.61
2022-08-14T22:46:06.108Z,79.67
2022-08-14T22:48:44.437Z,81.76
2022-08-14T22:51:13.730Z,83.49
2022-08-14T22:53:44.978Z,83.66
2022-08-14T22:56:20.585Z,84.66
2022-08-14T22:58:53.941Z,86.30
2022-08-14T23:01:55.596Z,88.05
2022-08-14T23:04:34.950Z,87.69
2022-08-14T23:07:14.421Z,88.45
2022-08-14T23:09:55.856Z,86.87
2022-08-14T23:12:31.767Z,85.82
2022-08-14T23:15:04.003Z,86.49
2022-08-14T23:17:38.993Z,86.79
2022-08-14T23:20:19.156Z,87.29
2022-08-14T23:22:51.232Z,87.16
2022-08-14T23:25:58.471Z,85.66
2022-08-14T23:28:34.309Z,84.61
2022-08-14T23:31:08.164Z,84.62
2022-08-14T23:33:41.950Z,86.28
2022-08-14T23:36:31.867Z,86.55
2022-08-14T23:39:07.188Z,86.82
2022-08-14T23:41:45.895Z,86.90
2022-08-14T23:44:16.223Z,86.65
2022-08-14T23:46:44.837Z,86.94
2022-08-14T23:49:12.960Z,86.46
2022-08-14T23:51:41.901Z,87.72
2022-08-14T23:54:48.975Z,86.95
2022-08-14T23:57:02.337Z,87.43
2022-08-14T23:59:31.596Z,87.42
